Terminal Aerodrome Forecast
Issued by NWS Sterling, VA

Current Version | Previous Version | Graphics & Text | Print | Product List | Glossary On
Versions: 1 2 3 4 5 6 7 8 9 10 11 12 13 14 15 16 17 18 19 20 21 22 23 24
973
FTUS41 KLWX 261503 AAA
TAFIAD
TAF AMD
KIAD 261503Z 2615/2718 17008G16KT P6SM -DZ BKN020 OVC025
     FM261600 17009KT P6SM BKN020 OVC025
     FM262300 17009KT P6SM SCT035 OVC040
     FM270400 20007KT 6SM -SHRA BKN008 OVC040
     FM270900 31005KT 5SM BR OVC040
     FM271200 33005KT P6SM SCT050 BKN080=

USA.gov is the U.S. government's official web portal to all federal, state and local government web resources and services.